sensor_id;sensor_type;location;lat;lon;timestamp;P1;durP1;ratioP1;P2;durP2;ratioP2
54511;SDS011;40419;47.438;19.026;2024-01-30T00:00:09;12.27;;;7.32;;
54511;SDS011;40419;47.438;19.026;2024-01-30T00:02:37;16.67;;;7.38;;
54511;SDS011;40419;47.438;19.026;2024-01-30T00:05:07;10.63;;;7.03;;
54511;SDS011;40419;47.438;19.026;2024-01-30T00:07:37;15.73;;;8.13;;
54511;SDS011;40419;47.438;19.026;2024-01-30T00:10:03;21.13;;;5.78;;
54511;SDS011;40419;47.438;19.026;2024-01-30T00:12:31;18.50;;;5.28;;
54511;SDS011;40419;47.438;19.026;2024-01-30T00:14:59;12.30;;;6.63;;
54511;SDS011;40419;47.438;19.026;2024-01-30T00:17:27;11.43;;;6.65;;
54511;SDS011;40419;47.438;19.026;2024-01-30T00:19:52;19.38;;;7.60;;
54511;SDS011;40419;47.438;19.026;2024-01-30T00:22:23;14.57;;;6.82;;
54511;SDS011;40419;47.438;19.026;2024-01-30T00:24:49;17.50;;;6.38;;
54511;SDS011;40419;47.438;19.026;2024-01-30T00:27:14;17.05;;;7.05;;
54511;SDS011;40419;47.438;19.026;2024-01-30T00:29:40;13.23;;;6.93;;
54511;SDS011;40419;47.438;19.026;2024-01-30T00:32:05;11.60;;;4.95;;
54511;SDS011;40419;47.438;19.026;2024-01-30T00:34:31;15.18;;;6.45;;
54511;SDS011;40419;47.438;19.026;2024-01-30T00:36:59;15.27;;;5.57;;
54511;SDS011;40419;47.438;19.026;2024-01-30T00:39:25;8.98;;;5.38;;
54511;SDS011;40419;47.438;19.026;2024-01-30T00:41:53;12.90;;;6.28;;
54511;SDS011;40419;47.438;19.026;2024-01-30T00:44:20;13.40;;;5.57;;
54511;SDS011;40419;47.438;19.026;2024-01-30T00:46:48;16.38;;;4.72;;
54511;SDS011;40419;47.438;19.026;2024-01-30T00:49:16;11.95;;;5.40;;
54511;SDS011;40419;47.438;19.026;2024-01-30T00:51:42;21.15;;;6.10;;
54511;SDS011;40419;47.438;19.026;2024-01-30T00:54:07;10.15;;;5.93;;
54511;SDS011;40419;47.438;19.026;2024-01-30T00:56:33;12.20;;;6.43;;
54511;SDS011;40419;47.438;19.026;2024-01-30T00:59:01;12.73;;;4.70;;
54511;SDS011;40419;47.438;19.026;2024-01-30T01:01:26;11.82;;;6.25;;
54511;SDS011;40419;47.438;19.026;2024-01-30T01:03:54;14.55;;;7.18;;
54511;SDS011;40419;47.438;19.026;2024-01-30T01:06:25;13.93;;;6.72;;
54511;SDS011;40419;47.438;19.026;2024-01-30T01:08:51;17.30;;;7.95;;
54511;SDS011;40419;47.438;19.026;2024-01-30T01:11:19;10.18;;;5.72;;
54511;SDS011;40419;47.438;19.026;2024-01-30T01:16:14;12.35;;;5.80;;
54511;SDS011;40419;47.438;19.026;2024-01-30T01:18:42;11.23;;;7.45;;
54511;SDS011;40419;47.438;19.026;2024-01-30T01:21:08;13.95;;;6.63;;
54511;SDS011;40419;47.438;19.026;2024-01-30T01:23:36;25.45;;;6.07;;
54511;SDS011;40419;47.438;19.026;2024-01-30T01:26:01;10.82;;;6.55;;
54511;SDS011;40419;47.438;19.026;2024-01-30T01:28:27;14.15;;;6.93;;
54511;SDS011;40419;47.438;19.026;2024-01-30T01:33:30;15.00;;;7.22;;
54511;SDS011;40419;47.438;19.026;2024-01-30T01:35:58;10.23;;;6.15;;
54511;SDS011;40419;47.438;19.026;2024-01-30T01:38:28;17.10;;;7.32;;
54511;SDS011;40419;47.438;19.026;2024-01-30T01:40:54;18.95;;;7.70;;
54511;SDS011;40419;47.438;19.026;2024-01-30T01:43:19;10.75;;;5.22;;
54511;SDS011;40419;47.438;19.026;2024-01-30T01:45:49;12.35;;;5.95;;
54511;SDS011;40419;47.438;19.026;2024-01-30T01:48:18;12.60;;;6.43;;
54511;SDS011;40419;47.438;19.026;2024-01-30T01:50:43;16.45;;;6.28;;
54511;SDS011;40419;47.438;19.026;2024-01-30T01:53:09;12.27;;;7.15;;
54511;SDS011;40419;47.438;19.026;2024-01-30T01:55:35;13.38;;;7.13;;
54511;SDS011;40419;47.438;19.026;2024-01-30T01:58:01;13.32;;;5.25;;
54511;SDS011;40419;47.438;19.026;2024-01-30T02:00:29;17.38;;;6.35;;
54511;SDS011;40419;47.438;19.026;2024-01-30T02:02:56;10.55;;;5.55;;
54511;SDS011;40419;47.438;19.026;2024-01-30T02:05:26;11.88;;;5.75;;
54511;SDS011;40419;47.438;19.026;2024-01-30T02:07:52;14.15;;;6.75;;
54511;SDS011;40419;47.438;19.026;2024-01-30T02:10:21;13.30;;;6.32;;
54511;SDS011;40419;47.438;19.026;2024-01-30T02:12:46;10.63;;;7.10;;
54511;SDS011;40419;47.438;19.026;2024-01-30T02:15:14;9.27;;;5.65;;
54511;SDS011;40419;47.438;19.026;2024-01-30T02:17:40;8.68;;;5.95;;
54511;SDS011;40419;47.438;19.026;2024-01-30T02:20:09;10.25;;;5.47;;
54511;SDS011;40419;47.438;19.026;2024-01-30T02:22:38;8.65;;;5.85;;
54511;SDS011;40419;47.438;19.026;2024-01-30T02:25:08;11.23;;;5.38;;
54511;SDS011;40419;47.438;19.026;2024-01-30T02:27:36;16.60;;;6.35;;
54511;SDS011;40419;47.438;19.026;2024-01-30T02:30:02;15.60;;;6.35;;
54511;SDS011;40419;47.438;19.026;2024-01-30T02:32:30;12.02;;;5.07;;
54511;SDS011;40419;47.438;19.026;2024-01-30T02:34:58;20.27;;;6.90;;
54511;SDS011;40419;47.438;19.026;2024-01-30T02:37:23;18.33;;;5.20;;
54511;SDS011;40419;47.438;19.026;2024-01-30T02:39:49;15.38;;;6.90;;
54511;SDS011;40419;47.438;19.026;2024-01-30T02:42:14;12.27;;;6.00;;
54511;SDS011;40419;47.438;19.026;2024-01-30T02:44:40;13.40;;;6.88;;
54511;SDS011;40419;47.438;19.026;2024-01-30T02:47:10;9.02;;;5.50;;
54511;SDS011;40419;47.438;19.026;2024-01-30T02:49:40;24.70;;;7.13;;
54511;SDS011;40419;47.438;19.026;2024-01-30T02:52:08;9.95;;;6.47;;
54511;SDS011;40419;47.438;19.026;2024-01-30T02:54:38;11.98;;;7.45;;
54511;SDS011;40419;47.438;19.026;2024-01-30T02:57:04;12.10;;;5.85;;
54511;SDS011;40419;47.438;19.026;2024-01-30T02:59:33;16.98;;;7.28;;
54511;SDS011;40419;47.438;19.026;2024-01-30T03:02:01;21.33;;;8.25;;
54511;SDS011;40419;47.438;19.026;2024-01-30T03:04:29;16.83;;;7.88;;
54511;SDS011;40419;47.438;19.026;2024-01-30T03:06:57;17.58;;;9.48;;
54511;SDS011;40419;47.438;19.026;2024-01-30T03:09:22;22.98;;;9.93;;
54511;SDS011;40419;47.438;19.026;2024-01-30T03:11:53;19.05;;;9.50;;
54511;SDS011;40419;47.438;19.026;2024-01-30T03:14:18;22.63;;;9.32;;
54511;SDS011;40419;47.438;19.026;2024-01-30T03:16:46;18.88;;;7.78;;
54511;SDS011;40419;47.438;19.026;2024-01-30T03:19:11;14.25;;;7.22;;
54511;SDS011;40419;47.438;19.026;2024-01-30T03:21:39;17.42;;;8.05;;
54511;SDS011;40419;47.438;19.026;2024-01-30T03:24:05;13.55;;;7.38;;
54511;SDS011;40419;47.438;19.026;2024-01-30T03:26:36;19.17;;;8.10;;
54511;SDS011;40419;47.438;19.026;2024-01-30T03:29:07;14.18;;;7.45;;
54511;SDS011;40419;47.438;19.026;2024-01-30T03:31:38;11.35;;;7.05;;
54511;SDS011;40419;47.438;19.026;2024-01-30T03:34:04;19.23;;;10.35;;
54511;SDS011;40419;47.438;19.026;2024-01-30T03:36:32;22.58;;;9.38;;
54511;SDS011;40419;47.438;19.026;2024-01-30T03:38:59;23.33;;;9.88;;
54511;SDS011;40419;47.438;19.026;2024-01-30T03:41:25;16.80;;;8.63;;
54511;SDS011;40419;47.438;19.026;2024-01-30T03:43:51;33.00;;;9.35;;
54511;SDS011;40419;47.438;19.026;2024-01-30T03:46:19;13.10;;;7.50;;
54511;SDS011;40419;47.438;19.026;2024-01-30T03:48:47;19.83;;;8.40;;
54511;SDS011;40419;47.438;19.026;2024-01-30T03:51:20;18.48;;;8.18;;
54511;SDS011;40419;47.438;19.026;2024-01-30T03:53:45;21.38;;;9.93;;
54511;SDS011;40419;47.438;19.026;2024-01-30T03:56:13;19.40;;;10.77;;
54511;SDS011;40419;47.438;19.026;2024-01-30T03:58:41;21.55;;;8.38;;
54511;SDS011;40419;47.438;19.026;2024-01-30T04:01:15;15.25;;;6.72;;
54511;SDS011;40419;47.438;19.026;2024-01-30T04:03:43;20.33;;;8.13;;
54511;SDS011;40419;47.438;19.026;2024-01-30T04:06:11;15.32;;;8.38;;
54511;SDS011;40419;47.438;19.026;2024-01-30T04:08:38;20.85;;;9.20;;
54511;SDS011;40419;47.438;19.026;2024-01-30T04:11:06;17.30;;;8.93;;
54511;SDS011;40419;47.438;19.026;2024-01-30T04:13:34;12.55;;;6.68;;
54511;SDS011;40419;47.438;19.026;2024-01-30T04:16:02;17.33;;;8.50;;
54511;SDS011;40419;47.438;19.026;2024-01-30T04:18:28;13.73;;;6.55;;
54511;SDS011;40419;47.438;19.026;2024-01-30T04:20:54;13.70;;;5.90;;
54511;SDS011;40419;47.438;19.026;2024-01-30T04:23:25;23.15;;;7.53;;
54511;SDS011;40419;47.438;19.026;2024-01-30T04:25:50;18.73;;;7.20;;
54511;SDS011;40419;47.438;19.026;2024-01-30T04:28:16;17.63;;;8.02;;
54511;SDS011;40419;47.438;19.026;2024-01-30T04:30:44;14.95;;;7.68;;
54511;SDS011;40419;47.438;19.026;2024-01-30T04:33:10;14.10;;;7.43;;
54511;SDS011;40419;47.438;19.026;2024-01-30T04:35:40;20.88;;;7.10;;
54511;SDS011;40419;47.438;19.026;2024-01-30T04:38:08;17.45;;;9.52;;
54511;SDS011;40419;47.438;19.026;2024-01-30T04:40:33;14.48;;;6.63;;
54511;SDS011;40419;47.438;19.026;2024-01-30T04:43:01;18.17;;;9.32;;
54511;SDS011;40419;47.438;19.026;2024-01-30T04:45:29;12.15;;;7.03;;
54511;SDS011;40419;47.438;19.026;2024-01-30T04:47:57;20.08;;;7.45;;
54511;SDS011;40419;47.438;19.026;2024-01-30T04:50:24;15.20;;;6.25;;
54511;SDS011;40419;47.438;19.026;2024-01-30T04:52:51;17.85;;;7.32;;
54511;SDS011;40419;47.438;19.026;2024-01-30T04:55:19;13.02;;;6.60;;
54511;SDS011;40419;47.438;19.026;2024-01-30T04:57:47;9.00;;;5.70;;
54511;SDS011;40419;47.438;19.026;2024-01-30T05:00:15;10.75;;;5.80;;
54511;SDS011;40419;47.438;19.026;2024-01-30T05:02:40;11.77;;;6.35;;
54511;SDS011;40419;47.438;19.026;2024-01-30T05:05:06;11.40;;;6.85;;
54511;SDS011;40419;47.438;19.026;2024-01-30T05:07:33;20.60;;;8.23;;
54511;SDS011;40419;47.438;19.026;2024-01-30T05:10:01;17.63;;;8.60;;
54511;SDS011;40419;47.438;19.026;2024-01-30T05:12:30;14.07;;;6.85;;
54511;SDS011;40419;47.438;19.026;2024-01-30T05:14:56;11.82;;;6.82;;
54511;SDS011;40419;47.438;19.026;2024-01-30T05:17:26;14.60;;;7.05;;
54511;SDS011;40419;47.438;19.026;2024-01-30T05:19:52;13.10;;;5.55;;
54511;SDS011;40419;47.438;19.026;2024-01-30T05:22:17;15.40;;;7.55;;
54511;SDS011;40419;47.438;19.026;2024-01-30T05:24:44;13.10;;;6.10;;
54511;SDS011;40419;47.438;19.026;2024-01-30T05:27:09;12.55;;;7.43;;
54511;SDS011;40419;47.438;19.026;2024-01-30T05:29:38;9.38;;;6.40;;
54511;SDS011;40419;47.438;19.026;2024-01-30T05:32:09;13.68;;;8.40;;
54511;SDS011;40419;47.438;19.026;2024-01-30T05:34:37;16.58;;;6.10;;
54511;SDS011;40419;47.438;19.026;2024-01-30T05:37:03;15.30;;;7.93;;
54511;SDS011;40419;47.438;19.026;2024-01-30T05:39:28;10.65;;;6.13;;
54511;SDS011;40419;47.438;19.026;2024-01-30T05:42:03;10.75;;;6.07;;
54511;SDS011;40419;47.438;19.026;2024-01-30T05:44:31;12.50;;;5.40;;
54511;SDS011;40419;47.438;19.026;2024-01-30T05:46:56;10.98;;;6.25;;
54511;SDS011;40419;47.438;19.026;2024-01-30T05:49:25;18.75;;;7.25;;
54511;SDS011;40419;47.438;19.026;2024-01-30T05:51:51;8.50;;;5.85;;
54511;SDS011;40419;47.438;19.026;2024-01-30T05:54:16;11.98;;;7.03;;
54511;SDS011;40419;47.438;19.026;2024-01-30T05:56:42;11.55;;;6.18;;
54511;SDS011;40419;47.438;19.026;2024-01-30T05:59:07;12.05;;;7.28;;
54511;SDS011;40419;47.438;19.026;2024-01-30T06:01:35;15.75;;;7.03;;
54511;SDS011;40419;47.438;19.026;2024-01-30T06:04:01;15.25;;;6.90;;
54511;SDS011;40419;47.438;19.026;2024-01-30T06:06:26;12.35;;;6.60;;
54511;SDS011;40419;47.438;19.026;2024-01-30T06:08:57;18.58;;;6.57;;
54511;SDS011;40419;47.438;19.026;2024-01-30T06:11:22;12.80;;;5.78;;
54511;SDS011;40419;47.438;19.026;2024-01-30T06:13:48;13.95;;;7.15;;
54511;SDS011;40419;47.438;19.026;2024-01-30T06:16:13;11.50;;;5.35;;
54511;SDS011;40419;47.438;19.026;2024-01-30T06:18:39;10.73;;;6.03;;
54511;SDS011;40419;47.438;19.026;2024-01-30T06:21:07;17.67;;;7.88;;
54511;SDS011;40419;47.438;19.026;2024-01-30T06:23:33;9.80;;;5.47;;
54511;SDS011;40419;47.438;19.026;2024-01-30T06:26:01;12.88;;;6.93;;
54511;SDS011;40419;47.438;19.026;2024-01-30T06:28:26;18.10;;;8.20;;
54511;SDS011;40419;47.438;19.026;2024-01-30T06:30:56;11.40;;;6.07;;
54511;SDS011;40419;47.438;19.026;2024-01-30T06:33:22;12.48;;;7.40;;
54511;SDS011;40419;47.438;19.026;2024-01-30T06:35:52;13.85;;;5.70;;
54511;SDS011;40419;47.438;19.026;2024-01-30T06:38:17;10.07;;;5.85;;
54511;SDS011;40419;47.438;19.026;2024-01-30T06:40:48;20.05;;;7.43;;
54511;SDS011;40419;47.438;19.026;2024-01-30T06:43:13;16.52;;;7.15;;
54511;SDS011;40419;47.438;19.026;2024-01-30T06:45:41;13.77;;;6.55;;
54511;SDS011;40419;47.438;19.026;2024-01-30T06:48:09;11.25;;;5.28;;
54511;SDS011;40419;47.438;19.026;2024-01-30T06:50:39;10.60;;;5.80;;
54511;SDS011;40419;47.438;19.026;2024-01-30T06:53:04;17.17;;;7.05;;
54511;SDS011;40419;47.438;19.026;2024-01-30T06:55:30;19.08;;;7.80;;
54511;SDS011;40419;47.438;19.026;2024-01-30T06:57:56;28.95;;;9.88;;
54511;SDS011;40419;47.438;19.026;2024-01-30T07:00:22;15.38;;;7.72;;
54511;SDS011;40419;47.438;19.026;2024-01-30T07:02:50;17.10;;;8.88;;
54511;SDS011;40419;47.438;19.026;2024-01-30T07:05:18;19.17;;;10.00;;
54511;SDS011;40419;47.438;19.026;2024-01-30T07:07:46;16.88;;;8.00;;
54511;SDS011;40419;47.438;19.026;2024-01-30T07:10:16;17.80;;;7.68;;
54511;SDS011;40419;47.438;19.026;2024-01-30T07:12:42;16.05;;;8.43;;
54511;SDS011;40419;47.438;19.026;2024-01-30T07:15:12;38.28;;;9.50;;
54511;SDS011;40419;47.438;19.026;2024-01-30T07:17:41;27.10;;;10.57;;
54511;SDS011;40419;47.438;19.026;2024-01-30T07:20:12;22.40;;;9.43;;
54511;SDS011;40419;47.438;19.026;2024-01-30T07:22:37;18.10;;;8.32;;
54511;SDS011;40419;47.438;19.026;2024-01-30T07:25:03;19.55;;;7.93;;
54511;SDS011;40419;47.438;19.026;2024-01-30T07:27:33;15.10;;;8.05;;
54511;SDS011;40419;47.438;19.026;2024-01-30T07:30:04;14.38;;;8.63;;
54511;SDS011;40419;47.438;19.026;2024-01-30T07:32:32;13.82;;;7.70;;
54511;SDS011;40419;47.438;19.026;2024-01-30T07:35:00;19.00;;;8.95;;
54511;SDS011;40419;47.438;19.026;2024-01-30T07:37:26;18.08;;;8.43;;
54511;SDS011;40419;47.438;19.026;2024-01-30T07:39:53;16.38;;;9.52;;
54511;SDS011;40419;47.438;19.026;2024-01-30T07:42:21;18.35;;;8.55;;
54511;SDS011;40419;47.438;19.026;2024-01-30T07:44:46;22.58;;;9.32;;
54511;SDS011;40419;47.438;19.026;2024-01-30T07:47:12;20.83;;;8.35;;
54511;SDS011;40419;47.438;19.026;2024-01-30T07:49:40;20.45;;;10.27;;
54511;SDS011;40419;47.438;19.026;2024-01-30T07:52:05;15.75;;;8.23;;
54511;SDS011;40419;47.438;19.026;2024-01-30T07:54:31;15.73;;;10.15;;
54511;SDS011;40419;47.438;19.026;2024-01-30T07:57:00;16.67;;;9.77;;
54511;SDS011;40419;47.438;19.026;2024-01-30T07:59:28;15.52;;;9.32;;
54511;SDS011;40419;47.438;19.026;2024-01-30T08:01:56;15.48;;;9.20;;
54511;SDS011;40419;47.438;19.026;2024-01-30T08:04:24;23.20;;;10.20;;
54511;SDS011;40419;47.438;19.026;2024-01-30T08:06:53;20.05;;;8.30;;
54511;SDS011;40419;47.438;19.026;2024-01-30T08:09:18;23.30;;;10.63;;
54511;SDS011;40419;47.438;19.026;2024-01-30T08:11:44;23.02;;;10.35;;
54511;SDS011;40419;47.438;19.026;2024-01-30T08:14:11;27.05;;;11.07;;
54511;SDS011;40419;47.438;19.026;2024-01-30T08:16:38;25.98;;;10.63;;
54511;SDS011;40419;47.438;19.026;2024-01-30T08:19:06;27.95;;;9.75;;
54511;SDS011;40419;47.438;19.026;2024-01-30T08:21:34;24.23;;;11.98;;
54511;SDS011;40419;47.438;19.026;2024-01-30T08:24:03;28.02;;;10.90;;
54511;SDS011;40419;47.438;19.026;2024-01-30T08:26:30;22.63;;;10.93;;
54511;SDS011;40419;47.438;19.026;2024-01-30T08:28:58;21.42;;;11.30;;
54511;SDS011;40419;47.438;19.026;2024-01-30T08:31:24;15.50;;;9.18;;
54511;SDS011;40419;47.438;19.026;2024-01-30T08:33:52;18.85;;;8.82;;
54511;SDS011;40419;47.438;19.026;2024-01-30T08:36:17;19.77;;;7.80;;
54511;SDS011;40419;47.438;19.026;2024-01-30T08:38:48;20.00;;;8.07;;
54511;SDS011;40419;47.438;19.026;2024-01-30T08:41:18;31.63;;;10.18;;
54511;SDS011;40419;47.438;19.026;2024-01-30T08:43:46;17.88;;;8.25;;
54511;SDS011;40419;47.438;19.026;2024-01-30T08:46:21;18.50;;;9.10;;
54511;SDS011;40419;47.438;19.026;2024-01-30T08:48:49;21.88;;;10.10;;
54511;SDS011;40419;47.438;19.026;2024-01-30T08:51:19;20.25;;;9.15;;
54511;SDS011;40419;47.438;19.026;2024-01-30T08:53:49;18.40;;;10.23;;
54511;SDS011;40419;47.438;19.026;2024-01-30T08:56:15;22.33;;;10.52;;
54511;SDS011;40419;47.438;19.026;2024-01-30T08:58:42;18.42;;;9.38;;
54511;SDS011;40419;47.438;19.026;2024-01-30T09:01:08;19.95;;;9.77;;
54511;SDS011;40419;47.438;19.026;2024-01-30T09:03:33;17.92;;;7.82;;
54511;SDS011;40419;47.438;19.026;2024-01-30T09:05:59;18.92;;;7.82;;
54511;SDS011;40419;47.438;19.026;2024-01-30T09:08:27;25.52;;;8.90;;
54511;SDS011;40419;47.438;19.026;2024-01-30T09:10:52;21.42;;;10.10;;
54511;SDS011;40419;47.438;19.026;2024-01-30T09:13:20;25.50;;;11.30;;
54511;SDS011;40419;47.438;19.026;2024-01-30T09:15:48;24.90;;;10.63;;
54511;SDS011;40419;47.438;19.026;2024-01-30T09:18:13;17.08;;;8.70;;
54511;SDS011;40419;47.438;19.026;2024-01-30T09:20:41;22.80;;;9.55;;
54511;SDS011;40419;47.438;19.026;2024-01-30T09:23:06;15.55;;;7.97;;
54511;SDS011;40419;47.438;19.026;2024-01-30T09:25:37;15.15;;;8.65;;
54511;SDS011;40419;47.438;19.026;2024-01-30T09:28:05;24.35;;;7.55;;
54511;SDS011;40419;47.438;19.026;2024-01-30T09:30:33;20.55;;;9.20;;
54511;SDS011;40419;47.438;19.026;2024-01-30T09:33:01;27.17;;;8.68;;
54511;SDS011;40419;47.438;19.026;2024-01-30T09:35:26;19.98;;;8.95;;
54511;SDS011;40419;47.438;19.026;2024-01-30T09:37:52;25.70;;;11.65;;
54511;SDS011;40419;47.438;19.026;2024-01-30T09:40:18;21.38;;;9.27;;
54511;SDS011;40419;47.438;19.026;2024-01-30T09:42:49;15.05;;;8.15;;
54511;SDS011;40419;47.438;19.026;2024-01-30T09:45:18;26.80;;;9.25;;
54511;SDS011;40419;47.438;19.026;2024-01-30T09:47:49;19.98;;;9.07;;
54511;SDS011;40419;47.438;19.026;2024-01-30T09:50:16;30.65;;;10.25;;
54511;SDS011;40419;47.438;19.026;2024-01-30T09:52:46;22.67;;;9.88;;
54511;SDS011;40419;47.438;19.026;2024-01-30T09:55:15;25.15;;;9.40;;
54511;SDS011;40419;47.438;19.026;2024-01-30T09:57:42;16.17;;;7.97;;
54511;SDS011;40419;47.438;19.026;2024-01-30T10:00:08;17.85;;;9.88;;
54511;SDS011;40419;47.438;19.026;2024-01-30T10:02:40;16.60;;;7.35;;
54511;SDS011;40419;47.438;19.026;2024-01-30T10:05:10;14.25;;;6.20;;
54511;SDS011;40419;47.438;19.026;2024-01-30T10:07:49;16.70;;;9.05;;
54511;SDS011;40419;47.438;19.026;2024-01-30T10:10:15;20.58;;;8.57;;
54511;SDS011;40419;47.438;19.026;2024-01-30T10:12:43;20.40;;;8.43;;
54511;SDS011;40419;47.438;19.026;2024-01-30T10:15:11;15.65;;;9.40;;
54511;SDS011;40419;47.438;19.026;2024-01-30T10:17:41;14.98;;;7.75;;
54511;SDS011;40419;47.438;19.026;2024-01-30T10:20:09;20.35;;;8.85;;
54511;SDS011;40419;47.438;19.026;2024-01-30T10:22:40;19.50;;;9.00;;
54511;SDS011;40419;47.438;19.026;2024-01-30T10:25:09;19.52;;;9.07;;
54511;SDS011;40419;47.438;19.026;2024-01-30T10:27:35;17.25;;;8.93;;
54511;SDS011;40419;47.438;19.026;2024-01-30T10:30:03;14.52;;;8.48;;
54511;SDS011;40419;47.438;19.026;2024-01-30T10:32:37;27.80;;;9.02;;
54511;SDS011;40419;47.438;19.026;2024-01-30T10:35:07;20.60;;;9.55;;
54511;SDS011;40419;47.438;19.026;2024-01-30T10:37:34;17.42;;;8.52;;
54511;SDS011;40419;47.438;19.026;2024-01-30T10:40:04;14.73;;;8.68;;
54511;SDS011;40419;47.438;19.026;2024-01-30T10:42:36;11.10;;;8.23;;
54511;SDS011;40419;47.438;19.026;2024-01-30T10:45:09;23.45;;;10.38;;
54511;SDS011;40419;47.438;19.026;2024-01-30T10:47:43;15.55;;;8.55;;
54511;SDS011;40419;47.438;19.026;2024-01-30T10:50:14;18.63;;;9.15;;
54511;SDS011;40419;47.438;19.026;2024-01-30T10:52:39;25.00;;;8.75;;
54511;SDS011;40419;47.438;19.026;2024-01-30T10:55:10;21.00;;;8.05;;
54511;SDS011;40419;47.438;19.026;2024-01-30T10:57:36;24.52;;;9.35;;
54511;SDS011;40419;47.438;19.026;2024-01-30T11:00:04;19.90;;;8.98;;
54511;SDS011;40419;47.438;19.026;2024-01-30T11:02:41;12.93;;;7.10;;
54511;SDS011;40419;47.438;19.026;2024-01-30T11:05:09;16.47;;;7.73;;
54511;SDS011;40419;47.438;19.026;2024-01-30T11:07:36;10.43;;;6.15;;
54511;SDS011;40419;47.438;19.026;2024-01-30T11:10:04;16.10;;;7.18;;
54511;SDS011;40419;47.438;19.026;2024-01-30T11:12:37;16.45;;;7.85;;
54511;SDS011;40419;47.438;19.026;2024-01-30T11:18:00;20.27;;;7.75;;
54511;SDS011;40419;47.438;19.026;2024-01-30T11:20:27;14.68;;;7.05;;
54511;SDS011;40419;47.438;19.026;2024-01-30T11:22:59;13.43;;;6.40;;
54511;SDS011;40419;47.438;19.026;2024-01-30T11:25:27;14.90;;;7.03;;
54511;SDS011;40419;47.438;19.026;2024-01-30T11:27:53;16.92;;;8.02;;
54511;SDS011;40419;47.438;19.026;2024-01-30T11:35:32;13.88;;;7.32;;
54511;SDS011;40419;47.438;19.026;2024-01-30T11:38:02;10.07;;;5.97;;
54511;SDS011;40419;47.438;19.026;2024-01-30T11:40:34;19.40;;;9.07;;
54511;SDS011;40419;47.438;19.026;2024-01-30T11:43:03;17.23;;;6.93;;
54511;SDS011;40419;47.438;19.026;2024-01-30T11:45:32;15.85;;;7.93;;
54511;SDS011;40419;47.438;19.026;2024-01-30T11:48:03;17.40;;;6.70;;
54511;SDS011;40419;47.438;19.026;2024-01-30T11:50:38;13.27;;;6.63;;
54511;SDS011;40419;47.438;19.026;2024-01-30T11:53:05;15.35;;;6.82;;
54511;SDS011;40419;47.438;19.026;2024-01-30T11:55:34;14.45;;;6.13;;
54511;SDS011;40419;47.438;19.026;2024-01-30T11:58:02;11.75;;;6.38;;
54511;SDS011;40419;47.438;19.026;2024-01-30T12:00:27;12.57;;;6.00;;
54511;SDS011;40419;47.438;19.026;2024-01-30T12:02:57;10.38;;;4.97;;
54511;SDS011;40419;47.438;19.026;2024-01-30T12:05:22;13.85;;;6.80;;
54511;SDS011;40419;47.438;19.026;2024-01-30T12:07:51;18.50;;;6.88;;
54511;SDS011;40419;47.438;19.026;2024-01-30T12:10:19;13.18;;;5.95;;
54511;SDS011;40419;47.438;19.026;2024-01-30T12:12:46;12.65;;;5.90;;
54511;SDS011;40419;47.438;19.026;2024-01-30T12:15:13;11.32;;;5.05;;
54511;SDS011;40419;47.438;19.026;2024-01-30T12:17:42;11.20;;;5.72;;
54511;SDS011;40419;47.438;19.026;2024-01-30T12:25:13;9.20;;;5.15;;
54511;SDS011;40419;47.438;19.026;2024-01-30T12:27:42;10.65;;;4.80;;
54511;SDS011;40419;47.438;19.026;2024-01-30T12:30:11;14.43;;;4.90;;
54511;SDS011;40419;47.438;19.026;2024-01-30T12:32:41;10.13;;;4.72;;
54511;SDS011;40419;47.438;19.026;2024-01-30T12:35:11;11.27;;;5.38;;
54511;SDS011;40419;47.438;19.026;2024-01-30T12:37:38;10.02;;;5.07;;
54511;SDS011;40419;47.438;19.026;2024-01-30T12:40:04;10.38;;;4.28;;
54511;SDS011;40419;47.438;19.026;2024-01-30T12:42:33;12.40;;;5.50;;
54511;SDS011;40419;47.438;19.026;2024-01-30T12:44:59;10.60;;;5.07;;
54511;SDS011;40419;47.438;19.026;2024-01-30T12:47:25;11.77;;;5.68;;
54511;SDS011;40419;47.438;19.026;2024-01-30T12:49:53;9.63;;;4.82;;
54511;SDS011;40419;47.438;19.026;2024-01-30T12:52:21;7.93;;;3.92;;
54511;SDS011;40419;47.438;19.026;2024-01-30T12:54:47;9.95;;;5.25;;
54511;SDS011;40419;47.438;19.026;2024-01-30T12:57:13;8.77;;;3.90;;
54511;SDS011;40419;47.438;19.026;2024-01-30T12:59:44;10.82;;;4.95;;
54511;SDS011;40419;47.438;19.026;2024-01-30T13:02:11;7.05;;;3.75;;
54511;SDS011;40419;47.438;19.026;2024-01-30T13:04:40;8.95;;;4.43;;
54511;SDS011;40419;47.438;19.026;2024-01-30T13:07:08;10.80;;;5.05;;
54511;SDS011;40419;47.438;19.026;2024-01-30T13:09:36;9.57;;;4.15;;
54511;SDS011;40419;47.438;19.026;2024-01-30T13:12:03;6.05;;;3.63;;
54511;SDS011;40419;47.438;19.026;2024-01-30T13:14:31;9.05;;;3.83;;
54511;SDS011;40419;47.438;19.026;2024-01-30T13:16:56;8.82;;;4.53;;
54511;SDS011;40419;47.438;19.026;2024-01-30T13:19:24;6.40;;;3.42;;
54511;SDS011;40419;47.438;19.026;2024-01-30T13:21:52;7.10;;;3.45;;
54511;SDS011;40419;47.438;19.026;2024-01-30T13:24:20;8.75;;;3.13;;
54511;SDS011;40419;47.438;19.026;2024-01-30T13:26:48;6.28;;;3.25;;
54511;SDS011;40419;47.438;19.026;2024-01-30T13:29:16;13.63;;;5.72;;
54511;SDS011;40419;47.438;19.026;2024-01-30T13:31:42;11.55;;;3.28;;
54511;SDS011;40419;47.438;19.026;2024-01-30T13:34:09;11.55;;;3.65;;
54511;SDS011;40419;47.438;19.026;2024-01-30T13:36:39;5.85;;;3.38;;
54511;SDS011;40419;47.438;19.026;2024-01-30T13:39:05;11.95;;;5.85;;
54511;SDS011;40419;47.438;19.026;2024-01-30T13:41:35;8.82;;;4.50;;
54511;SDS011;40419;47.438;19.026;2024-01-30T13:44:02;11.05;;;4.75;;
54511;SDS011;40419;47.438;19.026;2024-01-30T13:46:30;12.45;;;6.13;;
54511;SDS011;40419;47.438;19.026;2024-01-30T13:49:00;10.48;;;5.68;;
54511;SDS011;40419;47.438;19.026;2024-01-30T13:51:25;10.70;;;5.55;;
54511;SDS011;40419;47.438;19.026;2024-01-30T13:53:53;7.68;;;3.97;;
54511;SDS011;40419;47.438;19.026;2024-01-30T13:56:19;13.60;;;4.40;;
54511;SDS011;40419;47.438;19.026;2024-01-30T13:58:47;14.30;;;4.40;;
54511;SDS011;40419;47.438;19.026;2024-01-30T14:01:14;10.77;;;5.07;;
54511;SDS011;40419;47.438;19.026;2024-01-30T14:03:39;8.18;;;4.53;;
54511;SDS011;40419;47.438;19.026;2024-01-30T14:06:05;13.20;;;5.28;;
54511;SDS011;40419;47.438;19.026;2024-01-30T14:08:31;10.80;;;4.30;;
54511;SDS011;40419;47.438;19.026;2024-01-30T14:11:02;7.25;;;4.25;;
54511;SDS011;40419;47.438;19.026;2024-01-30T14:16:00;4.97;;;2.88;;
54511;SDS011;40419;47.438;19.026;2024-01-30T14:18:26;6.70;;;3.15;;
54511;SDS011;40419;47.438;19.026;2024-01-30T14:20:54;9.00;;;4.47;;
54511;SDS011;40419;47.438;19.026;2024-01-30T14:23:24;9.32;;;4.05;;
54511;SDS011;40419;47.438;19.026;2024-01-30T14:25:52;10.07;;;4.88;;
54511;SDS011;40419;47.438;19.026;2024-01-30T14:28:22;10.50;;;3.60;;
54511;SDS011;40419;47.438;19.026;2024-01-30T14:30:53;8.23;;;3.88;;
54511;SDS011;40419;47.438;19.026;2024-01-30T14:33:21;6.97;;;4.18;;
54511;SDS011;40419;47.438;19.026;2024-01-30T14:35:46;10.18;;;4.82;;
54511;SDS011;40419;47.438;19.026;2024-01-30T14:38:14;12.45;;;4.43;;
54511;SDS011;40419;47.438;19.026;2024-01-30T14:40:41;6.63;;;3.83;;
54511;SDS011;40419;47.438;19.026;2024-01-30T14:43:07;7.38;;;4.18;;